Main page
METAR-TAF:

METAR-TAF

Airports :

Rijeka, Croatia

Rijeka Airport

latitude: 45-13N, longitude: 014-35E, elevation: 85 m

Current weather observation

The report was made 32 minutes ago, at 07:00 UTC
Wind 13 kt from the North, varying between West/Northwest and East/Northeast
Temperature 15°C
Humidity 39%
Pressure 1018 hPa
Visibility 10 km or more
no clouds below 1500 m and no cumulonimbus

METAR: LDRI 240700Z 36013KT 300V060 CAVOK 15/01 Q1018

Time: 09:32 (07:32 UTC)

Forecast

The report was made 2 hours and 7 minutes ago, at 05:25 UTC
Forecast valid from 24 at 06 UTC to 25 at 06 UTC
Wind 8 kt from the North
Visibility 10 km or more
no clouds below 1500 m and no cumulonimbus
Becoming
from 24 at 22 UTC to 25 at 00 UTC
Wind 2 kt from variable directions

TAF: LDRI 240525Z 2406/2506 36008KT CAVOK TX18/2413Z TN10/2504Z BECMG 2422/2500 VRB02KT

Weather observations and forecasts of more than 4000 airports (METAR and TAF reports).

The available stations are represented by yellow and red dots on the map.

Hover mouse over dot to see the name of the station.

Then click to see weather observations and forecasts.

To change the map : click on the green buttons with a black cross to zoom in, on the green button with a dash to zoom out, or on the green arrows for adjacent maps.


METAR-TAF: